Time;durP1;ratioP1;P1;durP2;ratioP2;P2;SDS_P1;SDS_P2;PMS_P1;PMS_P2;Temp;Humidity;BMP_temperature;BMP_pressure;BME280_temperature;BME280_humidity;BME280_pressure;Samples;Min_cycle;Max_cycle;Signal;HPM_P1;HPM_P2
2022/05/16 00:00:36;;;;;;;12.80;4.20;;;17.70;99.90;;;;;;4992813;28;20490;-61
2022/05/16 00:03:04;;;;;;;8.75;4.32;;;17.80;99.90;;;;;;5010089;28;20433;-61
2022/05/16 00:05:30;;;;;;;8.45;4.10;;;17.80;99.90;;;;;;4992714;28;20547;-61
2022/05/16 00:07:55;;;;;;;7.17;3.70;;;17.80;99.90;;;;;;4989995;28;20879;-61
2022/05/16 00:10:22;;;;;;;9.55;4.40;;;17.80;99.90;;;;;;5003972;28;20472;-60
2022/05/16 00:12:48;;;;;;;8.50;3.90;;;17.80;99.90;;;;;;4987942;28;20440;-60
2022/05/16 00:15:16;;;;;;;9.60;4.10;;;17.70;99.90;;;;;;4991677;28;20917;-58
2022/05/16 00:17:42;;;;;;;7.50;3.80;;;17.80;99.90;;;;;;5000060;28;20419;-61
2022/05/16 00:20:09;;;;;;;10.20;4.20;;;17.90;99.90;;;;;;5006586;28;20923;-61
2022/05/16 00:22:35;;;;;;;10.15;3.90;;;18.00;99.90;;;;;;4998331;28;20438;-61
2022/05/16 00:25:02;;;;;;;7.88;4.65;;;17.90;99.90;;;;;;4997763;28;20399;-61
2022/05/16 00:27:27;;;;;;;11.05;4.30;;;17.90;99.90;;;;;;4998792;28;20396;-62
2022/05/16 00:29:53;;;;;;;8.23;3.70;;;17.90;99.90;;;;;;4996393;28;20951;-61
2022/05/16 00:32:20;;;;;;;9.70;3.83;;;17.80;99.90;;;;;;4989276;28;20410;-61
2022/05/16 00:34:46;;;;;;;13.60;4.28;;;17.90;99.90;;;;;;5004091;28;20422;-61
2022/05/16 00:37:12;;;;;;;7.57;3.70;;;17.80;99.90;;;;;;4989731;28;20394;-59
2022/05/16 00:39:37;;;;;;;8.35;3.90;;;17.70;99.90;;;;;;5007244;28;20407;-61
2022/05/16 00:42:03;;;;;;;8.82;4.00;;;17.80;99.90;;;;;;5003443;28;20489;-61
2022/05/16 00:44:30;;;;;;;10.23;4.65;;;17.80;99.90;;;;;;4989151;28;20864;-60
2022/05/16 00:46:55;;;;;;;10.35;4.50;;;17.80;99.90;;;;;;4980376;28;20460;-61
2022/05/16 00:49:31;;;;;;;10.13;4.50;;;17.90;99.90;;;;;;5000112;28;20407;-61
2022/05/16 00:52:00;;;;;;;9.75;4.40;;;17.80;99.90;;;;;;4999310;28;20403;-61
2022/05/16 00:54:34;;;;;;;8.87;4.30;;;17.80;99.90;;;;;;4993935;28;20958;-61
2022/05/16 00:57:05;;;;;;;9.68;4.78;;;17.80;99.90;;;;;;4997258;28;20426;-60
2022/05/16 01:00:05;;;;;;;10.35;4.47;;;17.70;99.90;;;;;;4995485;28;20397;-60
2022/05/16 01:05:18;;;;;;;11.32;5.50;;;17.70;99.90;;;;;;4982545;28;20432;-61
2022/05/16 01:07:44;;;;;;;8.73;4.80;;;17.80;99.90;;;;;;4997675;28;20464;-61
2022/05/16 01:10:14;;;;;;;9.93;4.60;;;17.80;99.90;;;;;;5004604;28;20456;-61
2022/05/16 01:12:43;;;;;;;8.52;4.40;;;17.70;99.90;;;;;;4993411;28;20414;-61
2022/05/16 01:15:34;;;;;;;9.50;5.00;;;17.70;99.90;;;;;;4966115;28;20839;-60
2022/05/16 01:18:00;;;;;;;11.02;4.53;;;17.60;99.90;;;;;;5010252;28;20393;-60
2022/05/16 01:21:04;;;;;;;12.25;4.95;;;17.50;99.90;;;;;;4993123;28;20423;-60
2022/05/16 01:23:44;;;;;;;10.30;5.50;;;17.40;99.90;;;;;;4987136;28;20413;-60
2022/05/16 01:26:20;;;;;;;11.68;5.03;;;17.40;99.90;;;;;;4999363;28;20399;-60
2022/05/16 01:28:46;;;;;;;10.30;5.30;;;17.50;99.90;;;;;;5004440;28;20401;-60
2022/05/16 01:31:12;;;;;;;12.63;5.05;;;17.60;99.90;;;;;;5005877;28;20394;-58
2022/05/16 01:33:38;;;;;;;10.23;4.60;;;17.60;99.90;;;;;;5010608;28;20918;-60
2022/05/16 01:36:05;;;;;;;9.60;4.70;;;17.50;99.90;;;;;;5008496;28;20750;-61
2022/05/16 01:38:31;;;;;;;11.17;4.90;;;17.60;99.90;;;;;;4997764;28;20397;-61
2022/05/16 01:41:04;;;;;;;10.00;4.90;;;17.60;99.90;;;;;;4992884;28;20963;-61
2022/05/16 01:43:35;;;;;;;9.57;4.30;;;17.70;99.90;;;;;;4987543;28;20513;-60
2022/05/16 01:46:01;;;;;;;9.07;4.50;;;17.50;99.90;;;;;;5001394;28;20402;-61
2022/05/16 01:48:30;;;;;;;9.40;4.63;;;17.30;99.90;;;;;;4994880;28;22108;-62
2022/05/16 01:51:02;;;;;;;8.50;4.20;;;17.30;99.90;;;;;;4992733;28;20379;-60
2022/05/16 01:53:28;;;;;;;9.95;4.30;;;17.30;99.90;;;;;;4998048;28;20456;-60
2022/05/16 01:55:54;;;;;;;9.48;4.50;;;17.40;99.90;;;;;;5006665;28;20818;-60
2022/05/16 01:58:21;;;;;;;8.10;4.32;;;17.40;99.90;;;;;;4992244;28;20399;-60
2022/05/16 02:00:46;;;;;;;9.93;5.10;;;17.40;99.90;;;;;;5006161;28;20484;-60
2022/05/16 02:03:12;;;;;;;8.93;4.37;;;17.30;99.90;;;;;;5003999;28;20555;-59
2022/05/16 02:05:40;;;;;;;9.03;4.60;;;17.10;99.90;;;;;;5009224;28;20462;-60
2022/05/16 02:08:07;;;;;;;11.18;4.68;;;17.00;99.90;;;;;;4992213;28;20398;-60
2022/05/16 02:10:33;;;;;;;8.70;4.40;;;16.90;99.90;;;;;;4997419;28;21270;-60
2022/05/16 02:12:59;;;;;;;8.75;4.07;;;16.80;99.90;;;;;;5007121;28;20450;-60
2022/05/16 02:15:29;;;;;;;8.80;4.57;;;16.80;99.90;;;;;;4999259;28;20397;-60
2022/05/16 02:17:55;;;;;;;10.20;4.70;;;16.90;99.90;;;;;;5002766;28;20498;-60
2022/05/16 02:20:21;;;;;;;8.10;4.30;;;16.60;99.90;;;;;;4995795;28;20953;-60
2022/05/16 02:25:40;;;;;;;9.80;4.70;;;16.50;99.90;;;;;;4996068;28;20776;-60
2022/05/16 02:28:11;;;;;;;10.38;4.68;;;16.60;99.90;;;;;;4995154;28;20964;-60
2022/05/16 02:30:37;;;;;;;8.60;4.40;;;16.70;99.90;;;;;;5009047;28;20393;-60
2022/05/16 02:33:03;;;;;;;10.97;4.57;;;16.80;99.90;;;;;;4994857;28;20431;-60
2022/05/16 02:35:31;;;;;;;10.10;4.40;;;16.80;99.90;;;;;;4999691;28;20398;-59
2022/05/16 02:37:58;;;;;;;9.65;4.28;;;16.90;99.90;;;;;;4992317;28;20430;-62
2022/05/16 02:40:26;;;;;;;10.90;4.60;;;16.90;99.90;;;;;;5002021;28;20481;-59
2022/05/16 02:42:52;;;;;;;9.90;4.40;;;16.90;99.90;;;;;;5001742;28;20416;-63
2022/05/16 02:45:18;;;;;;;10.15;4.20;;;16.90;99.90;;;;;;5005613;28;20418;-58
2022/05/16 02:47:44;;;;;;;10.20;4.65;;;16.90;99.90;;;;;;4991920;28;20726;-62
2022/05/16 02:50:10;;;;;;;9.13;4.50;;;16.90;99.90;;;;;;5008060;28;20543;-60
2022/05/16 02:52:35;;;;;;;9.32;5.00;;;16.80;99.90;;;;;;5007357;28;20408;-61
2022/05/16 02:55:01;;;;;;;9.48;4.40;;;16.70;99.90;;;;;;4998316;28;20857;-62
2022/05/16 02:57:28;;;;;;;9.37;4.50;;;16.80;99.90;;;;;;5010156;28;20392;-63
2022/05/16 02:59:54;;;;;;;10.30;4.80;;;16.70;99.90;;;;;;5003287;28;20858;-59
2022/05/16 03:02:20;;;;;;;8.43;4.35;;;16.70;99.90;;;;;;4996144;28;20772;-60
2022/05/16 03:04:46;;;;;;;9.70;4.40;;;16.60;99.90;;;;;;4991288;28;20391;-61
2022/05/16 03:07:12;;;;;;;9.45;4.70;;;16.70;99.90;;;;;;4995509;28;20395;-60
2022/05/16 03:09:38;;;;;;;9.60;4.40;;;16.80;99.90;;;;;;4969577;28;20431;-61
2022/05/16 03:12:04;;;;;;;10.37;4.50;;;16.80;99.90;;;;;;4984665;28;20406;-61
2022/05/16 03:14:30;;;;;;;10.32;4.78;;;16.80;99.90;;;;;;4966495;28;20444;-60
2022/05/16 03:16:56;;;;;;;9.40;4.63;;;16.70;99.90;;;;;;4976331;28;20416;-60
2022/05/16 03:19:22;;;;;;;9.80;4.97;;;16.60;99.90;;;;;;4979203;28;20406;-60
2022/05/16 03:21:47;;;;;;;9.82;4.65;;;16.50;99.90;;;;;;4985538;28;20479;-60
2022/05/16 03:24:13;;;;;;;9.23;4.60;;;16.50;99.90;;;;;;4969571;28;20479;-60
2022/05/16 03:26:39;;;;;;;8.55;4.78;;;16.50;99.90;;;;;;4968452;28;20451;-60
2022/05/16 03:29:06;;;;;;;8.13;4.00;;;16.50;99.90;;;;;;4966888;28;20428;-60
2022/05/16 03:31:33;;;;;;;9.30;4.35;;;16.50;99.90;;;;;;4977276;28;20474;-60
2022/05/16 03:33:58;;;;;;;9.60;4.40;;;16.70;99.90;;;;;;4981007;28;20944;-60
2022/05/16 03:36:24;;;;;;;8.30;3.90;;;16.90;99.90;;;;;;4970880;28;20412;-60
2022/05/16 03:41:35;;;;;;;7.73;4.10;;;17.00;99.90;;;;;;4971277;28;20391;-57
2022/05/16 03:44:00;;;;;;;9.80;4.40;;;17.10;99.90;;;;;;4969447;28;20410;-64
2022/05/16 03:46:26;;;;;;;9.55;4.40;;;17.00;99.90;;;;;;4973698;28;20762;-61
2022/05/16 03:48:52;;;;;;;8.40;4.00;;;17.10;99.90;;;;;;4969272;28;20503;-61
2022/05/16 03:51:19;;;;;;;8.02;4.40;;;17.20;99.90;;;;;;4971811;28;20461;-59
2022/05/16 03:53:47;;;;;;;8.30;4.22;;;17.20;99.90;;;;;;4973192;28;20894;-61
2022/05/16 03:56:25;;;;;;;7.65;4.13;;;17.10;99.90;;;;;;4978889;28;20497;-60
2022/05/16 03:58:51;;;;;;;7.50;3.83;;;17.10;99.90;;;;;;4986223;28;20459;-60
2022/05/16 04:01:17;;;;;;;9.00;3.90;;;17.20;99.90;;;;;;4978134;28;20898;-59
2022/05/16 04:03:44;;;;;;;10.93;4.40;;;17.30;99.90;;;;;;4964466;28;20447;-61
2022/05/16 04:06:09;;;;;;;8.32;4.10;;;17.40;99.90;;;;;;4976843;28;21087;-60
2022/05/16 04:08:35;;;;;;;8.77;4.10;;;17.50;99.90;;;;;;4970657;28;20536;-61
2022/05/16 04:11:02;;;;;;;9.25;4.00;;;17.50;99.90;;;;;;4987220;28;20493;-60
2022/05/16 04:13:27;;;;;;;9.80;3.60;;;17.40;99.90;;;;;;4984143;28;20755;-60
2022/05/16 04:15:54;;;;;;;10.43;4.22;;;17.50;99.90;;;;;;5004936;28;20397;-60
2022/05/16 04:18:19;;;;;;;10.13;3.90;;;17.50;99.90;;;;;;4990490;28;21163;-60
2022/05/16 04:20:45;;;;;;;8.07;3.80;;;17.50;99.90;;;;;;4992112;28;20963;-59
2022/05/16 04:23:11;;;;;;;8.30;4.00;;;17.50;99.90;;;;;;4998489;28;20520;-61
2022/05/16 04:25:37;;;;;;;11.18;4.40;;;17.50;99.90;;;;;;4986524;28;20399;-61
2022/05/16 04:28:07;;;;;;;9.43;4.43;;;17.60;99.90;;;;;;4992439;28;20393;-59
2022/05/16 04:30:33;;;;;;;9.40;4.20;;;17.60;99.90;;;;;;4995622;28;20410;-59
2022/05/16 04:32:59;;;;;;;8.65;4.50;;;17.60;99.90;;;;;;4981125;28;20475;-59
2022/05/16 04:35:25;;;;;;;9.20;4.10;;;17.70;99.90;;;;;;4989096;28;20416;-59
2022/05/16 04:37:51;;;;;;;8.70;4.50;;;17.50;99.90;;;;;;4987550;28;20501;-60
2022/05/16 04:40:18;;;;;;;9.20;4.70;;;17.50;99.90;;;;;;4984697;28;20423;-58
2022/05/16 04:42:44;;;;;;;8.50;4.40;;;17.70;99.90;;;;;;4991151;28;20402;-59
2022/05/16 04:45:30;;;;;;;10.48;4.90;;;17.40;99.90;;;;;;4992075;28;20903;-60
2022/05/16 04:48:06;;;;;;;10.65;4.80;;;17.30;1.00;;;;;;4992046;28;20420;-59
2022/05/16 04:50:33;;;;;;;11.07;5.10;;;17.40;1.00;;;;;;4991120;28;20406;-60
2022/05/16 04:53:00;;;;;;;11.80;5.30;;;17.40;1.00;;;;;;4988529;28;21555;-59
2022/05/16 04:55:27;;;;;;;8.70;5.00;;;17.40;1.00;;;;;;4990527;28;20473;-59
2022/05/16 04:57:53;;;;;;;10.65;4.95;;;17.50;1.00;;;;;;4992198;28;20768;-60
2022/05/16 05:00:21;;;;;;;10.10;5.00;;;17.50;1.00;;;;;;4992842;28;20402;-58
2022/05/16 05:02:47;;;;;;;10.80;5.10;;;17.50;1.00;;;;;;4999498;28;20465;-61
2022/05/16 05:05:15;;;;;;;10.80;5.35;;;17.40;1.00;;;;;;4992555;28;20406;-58
2022/05/16 05:07:41;;;;;;;10.32;5.50;;;17.30;1.00;;;;;;4989287;28;20408;-61
2022/05/16 05:15:38;;;;;;;9.80;5.00;;;17.70;1.00;;;;;;4987260;28;20400;-60
2022/05/16 05:18:05;;;;;;;10.60;6.10;;;17.80;1.00;;;;;;4980048;28;20422;-61
2022/05/16 05:20:32;;;;;;;11.77;5.50;;;17.90;1.00;;;;;;4979635;28;20400;-61
2022/05/16 05:22:59;;;;;;;12.48;5.40;;;18.10;1.00;;;;;;4989155;28;20426;-59
2022/05/16 05:25:24;;;;;;;10.32;4.97;;;18.20;1.00;;;;;;4988765;28;20497;-58
2022/05/16 05:27:52;;;;;;;12.07;5.60;;;18.40;1.00;;;;;;4994600;28;20819;-60
2022/05/16 05:30:23;;;;;;;10.45;5.10;;;18.60;99.90;;;;;;4991704;28;20408;-55
2022/05/16 05:32:49;;;;;;;11.07;5.40;;;18.80;99.90;;;;;;4993607;28;20420;-60
2022/05/16 05:35:16;;;;;;;11.60;5.78;;;18.80;99.90;;;;;;4993466;28;20391;-57
2022/05/16 05:37:42;;;;;;;10.18;5.38;;;18.60;99.90;;;;;;4992179;28;20441;-60
2022/05/16 05:40:09;;;;;;;14.35;5.90;;;18.60;99.90;;;;;;4994911;28;20402;-61
2022/05/16 05:42:35;;;;;;;11.93;5.90;;;18.50;99.90;;;;;;5001392;28;20408;-61
2022/05/16 05:45:01;;;;;;;14.30;5.93;;;18.50;1.00;;;;;;5012015;28;20389;-61
2022/05/16 05:47:28;;;;;;;13.50;6.07;;;18.50;1.00;;;;;;5003021;28;20483;-60
2022/05/16 05:49:54;;;;;;;12.95;5.75;;;18.40;1.00;;;;;;4994046;28;20436;-60
2022/05/16 05:52:20;;;;;;;10.80;5.50;;;18.40;1.00;;;;;;5002228;28;20422;-55
2022/05/16 05:54:47;;;;;;;12.00;5.40;;;18.40;1.00;;;;;;4983664;28;20412;-60
2022/05/16 05:57:14;;;;;;;11.55;5.80;;;18.50;1.00;;;;;;4994043;28;20401;-61
2022/05/16 05:59:40;;;;;;;12.20;6.10;;;18.60;1.00;;;;;;5007749;28;20393;-61
2022/05/16 06:02:08;;;;;;;11.43;5.85;;;18.80;1.00;;;;;;4999306;28;20402;-61
2022/05/16 06:04:34;;;;;;;11.70;5.30;;;18.80;99.90;;;;;;4984709;28;20429;-60
2022/05/16 06:07:00;;;;;;;8.60;4.70;;;19.00;99.90;;;;;;4990017;28;20872;-61
2022/05/16 06:09:26;;;;;;;10.93;5.38;;;19.30;99.90;;;;;;4990346;28;20892;-64
2022/05/16 06:11:52;;;;;;;14.60;5.60;;;19.60;99.90;;;;;;4991173;28;20406;-60
2022/05/16 06:14:18;;;;;;;11.23;5.90;;;20.20;99.90;;;;;;4991420;28;20411;-56
2022/05/16 06:16:43;;;;;;;10.13;4.90;;;20.90;99.90;;;;;;4991795;28;20391;-61
2022/05/16 06:19:09;;;;;;;13.75;5.25;;;21.30;99.90;;;;;;4974776;28;20448;-61
2022/05/16 06:21:36;;;;;;;14.38;4.80;;;21.90;99.90;;;;;;4991543;28;20398;-62
2022/05/16 06:24:03;;;;;;;11.03;5.30;;;23.00;99.90;;;;;;4998194;28;20914;-62
2022/05/16 06:26:28;;;;;;;10.32;4.90;;;24.10;99.90;;;;;;4996322;28;20387;-62
2022/05/16 06:28:58;;;;;;;12.15;6.10;;;24.50;99.90;;;;;;4992385;28;20409;-62
2022/05/16 06:31:23;;;;;;;13.48;5.78;;;24.00;99.90;;;;;;4987485;28;20388;-60
2022/05/16 06:33:49;;;;;;;12.73;5.67;;;23.90;99.90;;;;;;4994002;28;20473;-61
2022/05/16 06:36:16;;;;;;;10.40;5.20;;;24.90;99.90;;;;;;4991006;28;20385;-61
2022/05/16 06:38:42;;;;;;;10.82;4.63;;;26.30;99.90;;;;;;4991054;28;20485;-62
2022/05/16 06:41:08;;;;;;;11.98;4.60;;;27.30;99.90;;;;;;4991138;28;20426;-61
2022/05/16 06:43:34;;;;;;;10.70;5.38;;;28.30;99.90;;;;;;4990606;28;20402;-62
2022/05/16 06:46:02;;;;;;;10.38;5.50;;;29.10;99.90;;;;;;4992022;28;20406;-62
2022/05/16 06:48:28;;;;;;;9.47;5.87;;;29.90;99.90;;;;;;4990522;28;20876;-62
2022/05/16 06:50:54;;;;;;;9.30;5.80;;;29.70;99.90;;;;;;4991044;28;20910;-62
2022/05/16 06:53:27;;;;;;;9.50;5.33;;;29.60;99.90;;;;;;4990896;28;20480;-57
2022/05/16 06:55:54;;;;;;;9.13;5.93;;;29.60;99.90;;;;;;4991651;28;20403;-62
2022/05/16 06:58:20;;;;;;;11.23;5.95;;;29.80;99.90;;;;;;4990488;28;20867;-57
2022/05/16 07:00:46;;;;;;;9.90;5.60;;;29.10;99.90;;;;;;4993290;28;20389;-60
2022/05/16 07:03:12;;;;;;;9.75;5.78;;;28.50;99.90;;;;;;4990965;28;20390;-61
2022/05/16 07:05:38;;;;;;;10.40;5.60;;;28.40;99.90;;;;;;4989309;28;20382;-62
2022/05/16 07:08:04;;;;;;;9.90;6.37;;;29.30;99.90;;;;;;4991356;28;20394;-63
2022/05/16 07:10:31;;;;;;;9.70;5.97;;;29.90;99.90;;;;;;4990762;28;20486;-62
2022/05/16 07:12:57;;;;;;;10.10;6.30;;;29.80;99.90;;;;;;4991166;28;20418;-62
2022/05/16 07:15:23;;;;;;;11.13;5.60;;;29.00;99.90;;;;;;4991011;28;20389;-62
2022/05/16 07:17:48;;;;;;;10.30;5.53;;;27.90;99.90;;;;;;4991387;28;20478;-63
2022/05/16 07:20:14;;;;;;;11.45;5.28;;;27.30;99.90;;;;;;4990416;28;20399;-63
2022/05/16 07:22:43;;;;;;;14.00;5.70;;;27.10;99.90;;;;;;4990014;28;20391;-62
2022/05/16 07:25:09;;;;;;;9.05;4.90;;;27.30;99.90;;;;;;4990950;28;20391;-63
2022/05/16 07:30:19;;;;;;;10.85;4.45;;;28.30;99.90;;;;;;4990714;28;20942;-57
2022/05/16 07:32:46;;;;;;;7.97;4.90;;;28.50;99.90;;;;;;4990246;28;20505;-61
2022/05/16 07:35:15;;;;;;;8.60;4.88;;;28.80;99.90;;;;;;4990508;28;20387;-62
2022/05/16 07:37:41;;;;;;;7.50;4.88;;;30.10;99.90;;;;;;4989231;28;20397;-60
2022/05/16 07:40:09;;;;;;;8.45;6.60;;;30.80;99.90;;;;;;4990661;28;20398;-63
2022/05/16 07:42:35;;;;;;;8.60;5.93;;;31.80;99.90;;;;;;4989942;28;20409;-63
2022/05/16 07:45:02;;;;;;;9.27;5.18;;;31.30;99.90;;;;;;4990430;28;20481;-63
2022/05/16 07:47:30;;;;;;;8.10;5.68;;;30.80;99.90;;;;;;4989484;28;20394;-63
2022/05/16 07:49:57;;;;;;;9.25;5.07;;;29.80;99.90;;;;;;4990359;28;20387;-63
2022/05/16 07:52:23;;;;;;;9.37;5.50;;;29.10;99.90;;;;;;4989403;28;20441;-57
2022/05/16 07:54:48;;;;;;;9.20;5.40;;;28.30;99.90;;;;;;4990222;28;20817;-63
2022/05/16 07:57:14;;;;;;;11.65;5.70;;;28.60;99.90;;;;;;4991079;28;20470;-63
2022/05/16 07:59:41;;;;;;;9.57;5.28;;;28.60;99.90;;;;;;4989609;28;20383;-61
2022/05/16 08:02:07;;;;;;;9.47;5.60;;;27.80;99.90;;;;;;4990210;28;20836;-64
2022/05/16 08:04:33;;;;;;;11.85;6.20;;;26.90;99.90;;;;;;4989108;28;20422;-63
2022/05/16 08:06:59;;;;;;;8.95;4.90;;;26.20;99.90;;;;;;4989988;28;20378;-63
2022/05/16 08:12:10;;;;;;;10.13;5.83;;;25.80;99.90;;;;;;4989821;28;20406;-63
2022/05/16 08:14:38;;;;;;;8.90;5.25;;;25.90;99.90;;;;;;4989382;28;20398;-62
2022/05/16 08:17:04;;;;;;;9.50;5.50;;;25.90;99.90;;;;;;4989745;28;20394;-62
2022/05/16 08:19:33;;;;;;;9.23;5.73;;;25.80;99.90;;;;;;4989320;28;20378;-62
2022/05/16 08:21:59;;;;;;;10.15;5.68;;;25.90;99.90;;;;;;4990249;28;20851;-62
2022/05/16 08:24:25;;;;;;;9.97;5.80;;;26.00;99.90;;;;;;4985518;28;20426;-62
2022/05/16 08:26:51;;;;;;;10.25;5.50;;;26.00;99.90;;;;;;4987851;28;20901;-63
2022/05/16 08:29:16;;;;;;;9.95;5.50;;;25.70;99.90;;;;;;4989855;28;20851;-62
2022/05/16 08:31:42;;;;;;;10.73;5.60;;;25.40;99.90;;;;;;4988826;28;20391;-60
2022/05/16 08:34:08;;;;;;;11.13;5.60;;;25.20;99.90;;;;;;4972377;28;20517;-60
2022/05/16 08:42:08;;;;;;;11.13;5.80;;;26.60;99.90;;;;;;4989938;28;20394;-63
2022/05/16 08:44:41;;;;;;;10.80;6.60;;;26.80;99.90;;;;;;4989157;28;20434;-62
2022/05/16 08:47:21;;;;;;;12.07;6.00;;;27.60;99.90;;;;;;4989595;28;20879;-63
2022/05/16 08:50:00;;;;;;;10.77;6.13;;;27.90;99.90;;;;;;4989256;28;20378;-63
2022/05/16 08:52:46;;;;;;;9.80;5.43;;;27.40;99.90;;;;;;4988359;28;20410;-62
2022/05/16 08:55:31;;;;;;;11.98;5.68;;;28.30;99.90;;;;;;4989211;28;20410;-63
2022/05/16 08:58:11;;;;;;;10.98;5.70;;;29.70;99.90;;;;;;4989392;28;20950;-60
2022/05/16 09:00:47;;;;;;;14.30;6.55;;;30.20;99.90;;;;;;4989052;28;20470;-63
2022/05/16 09:03:23;;;;;;;13.43;7.30;;;29.60;99.90;;;;;;4990012;28;20395;-63
2022/05/16 09:05:56;;;;;;;11.10;6.72;;;29.20;99.90;;;;;;4989830;28;20880;-63
2022/05/16 09:08:50;;;;;;;9.82;6.20;;;29.00;99.90;;;;;;4989003;28;20541;-58
2022/05/16 09:11:40;;;;;;;11.10;6.53;;;28.50;99.90;;;;;;4987714;28;20502;-63
2022/05/16 09:14:46;;;;;;;12.65;6.85;;;28.80;99.90;;;;;;4989818;28;21400;-63
2022/05/16 09:17:19;;;;;;;11.05;5.65;;;29.00;99.90;;;;;;4989109;28;20468;-63
2022/05/16 09:20:05;;;;;;;13.80;6.00;;;29.10;99.90;;;;;;4988964;28;20398;-63
2022/05/16 09:22:49;;;;;;;12.73;6.63;;;29.10;99.90;;;;;;4988390;28;20935;-61
2022/05/16 09:25:21;;;;;;;11.27;6.63;;;29.10;99.90;;;;;;4989495;28;20394;-62
2022/05/16 09:30:44;;;;;;;10.98;6.80;;;27.90;99.90;;;;;;4992547;28;20498;-63
2022/05/16 09:33:24;;;;;;;11.63;6.67;;;27.90;99.90;;;;;;4993331;28;20513;-63
2022/05/16 09:36:01;;;;;;;10.45;6.53;;;27.60;99.90;;;;;;4992909;28;20880;-62
2022/05/16 09:38:27;;;;;;;10.90;6.57;;;27.10;99.90;;;;;;4992567;28;20410;-63
2022/05/16 09:40:59;;;;;;;10.57;6.47;;;27.20;99.90;;;;;;4993300;28;20412;-63
2022/05/16 09:43:30;;;;;;;12.60;6.18;;;27.90;99.90;;;;;;4991573;28;20411;-59
2022/05/16 09:46:23;;;;;;;12.15;6.57;;;28.00;99.90;;;;;;4993710;28;20410;-63
2022/05/16 09:49:06;;;;;;;12.90;6.90;;;27.30;99.90;;;;;;4989420;28;20406;-63
2022/05/16 09:51:46;;;;;;;9.80;6.15;;;27.00;99.90;;;;;;4992312;28;20517;-63
2022/05/16 09:54:23;;;;;;;13.47;6.50;;;27.80;99.90;;;;;;4992764;28;20502;-62
2022/05/16 09:57:04;;;;;;;9.63;5.93;;;28.80;99.90;;;;;;4992597;28;20379;-64
2022/05/16 09:59:35;;;;;;;10.90;6.88;;;28.90;99.90;;;;;;4992148;28;20398;-63
2022/05/16 10:02:19;;;;;;;14.20;6.47;;;28.30;99.90;;;;;;4992820;28;20564;-63
2022/05/16 10:04:49;;;;;;;11.95;6.70;;;28.20;99.90;;;;;;4991735;28;20457;-62
2022/05/16 10:07:15;;;;;;;10.67;6.53;;;28.10;99.90;;;;;;4992817;28;20845;-64
2022/05/16 10:09:43;;;;;;;11.77;6.47;;;27.90;99.90;;;;;;4991553;28;20410;-63
2022/05/16 10:12:11;;;;;;;12.38;6.80;;;28.00;99.90;;;;;;4992546;28;20902;-64
2022/05/16 10:14:39;;;;;;;10.70;5.82;;;28.40;99.90;;;;;;4991599;28;20437;-61
2022/05/16 10:17:08;;;;;;;9.65;5.60;;;28.40;99.90;;;;;;4992515;28;20473;-63
2022/05/16 10:19:35;;;;;;;10.65;6.30;;;27.70;99.90;;;;;;4991208;28;20387;-65
2022/05/16 10:22:11;;;;;;;11.87;5.70;;;27.50;99.90;;;;;;4992056;28;20430;-62
2022/05/16 10:24:52;;;;;;;10.20;5.43;;;27.30;99.90;;;;;;4991488;28;20390;-63
2022/05/16 10:27:28;;;;;;;16.20;5.90;;;27.10;99.90;;;;;;4992418;28;20386;-63
2022/05/16 10:29:56;;;;;;;10.90;5.47;;;27.10;99.90;;;;;;4992164;28;20387;-63
2022/05/16 10:35:30;;;;;;;13.52;5.30;;;27.40;99.90;;;;;;4991777;28;20752;-58
2022/05/16 10:37:59;;;;;;;11.13;5.00;;;27.30;99.90;;;;;;4991845;28;20437;-64
2022/05/16 10:40:58;;;;;;;10.73;4.70;;;27.70;99.90;;;;;;4990927;28;20461;-58
2022/05/16 10:43:56;;;;;;;11.20;4.50;;;27.70;99.90;;;;;;4972767;28;20410;-57
2022/05/16 10:46:30;;;;;;;11.90;5.15;;;27.20;99.90;;;;;;4991903;28;20478;-58
2022/05/16 10:49:19;;;;;;;8.57;4.10;;;26.80;99.90;;;;;;4991410;28;20394;-61
2022/05/16 10:52:00;;;;;;;10.57;3.95;;;26.10;99.90;;;;;;4987964;28;20911;-61
2022/05/16 10:54:32;;;;;;;8.30;4.40;;;25.80;99.90;;;;;;4955533;28;20882;-56
2022/05/16 10:57:07;;;;;;;10.32;4.22;;;25.90;99.90;;;;;;4988276;28;20398;-62
2022/05/16 10:59:47;;;;;;;8.60;3.70;;;26.20;99.90;;;;;;4990459;28;20876;-62
2022/05/16 11:02:30;;;;;;;10.25;3.53;;;26.50;99.90;;;;;;4991508;28;20434;-63
2022/05/16 11:05:17;;;;;;;12.23;3.65;;;26.60;99.90;;;;;;4991168;28;20379;-63
2022/05/16 11:08:03;;;;;;;11.40;4.20;;;26.80;99.90;;;;;;4990453;28;20891;-61
2022/05/16 11:10:40;;;;;;;10.07;4.30;;;26.60;99.90;;;;;;4990399;28;20398;-61
2022/05/16 11:13:11;;;;;;;10.60;3.78;;;26.50;99.90;;;;;;4988016;28;20414;-61
2022/05/16 11:15:55;;;;;;;8.63;4.03;;;26.20;99.90;;;;;;4990164;28;20809;-61
2022/05/16 11:18:45;;;;;;;10.55;4.55;;;25.80;99.90;;;;;;4990229;28;20415;-61
2022/05/16 11:21:40;;;;;;;17.83;4.33;;;25.60;99.90;;;;;;4988002;28;20887;-61
2022/05/16 11:24:44;;;;;;;12.82;4.20;;;26.10;99.90;;;;;;4990076;28;20395;-61
2022/05/16 11:27:23;;;;;;;9.70;4.05;;;26.10;99.90;;;;;;4980228;28;20435;-62
2022/05/16 11:29:55;;;;;;;7.70;3.40;;;26.50;99.90;;;;;;4970904;28;20477;-63
2022/05/16 11:32:42;;;;;;;10.30;3.20;;;26.70;99.90;;;;;;4990007;28;20414;-60
2022/05/16 11:35:34;;;;;;;11.15;3.63;;;26.00;99.90;;;;;;4982315;28;20390;-61
2022/05/16 11:38:17;;;;;;;10.18;3.47;;;25.40;99.90;;;;;;4984754;28;20410;-63
2022/05/16 11:41:07;;;;;;;9.73;3.30;;;25.00;99.90;;;;;;4987528;28;20510;-62
2022/05/16 11:43:41;;;;;;;11.32;3.17;;;24.60;99.90;;;;;;4987876;28;20825;-62
2022/05/16 11:46:07;;;;;;;8.63;2.60;;;24.10;99.90;;;;;;4988456;28;20880;-62
2022/05/16 11:49:07;;;;;;;7.35;2.83;;;24.00;99.90;;;;;;4988908;28;20730;-64
2022/05/16 11:51:32;;;;;;;8.13;2.87;;;23.90;99.90;;;;;;4986475;28;20485;-61
2022/05/16 11:54:01;;;;;;;8.03;2.77;;;23.70;99.90;;;;;;4986341;28;20907;-62
2022/05/16 12:02:16;;;;;;;7.20;2.38;;;23.40;99.90;;;;;;4988306;28;20393;-61
2022/05/16 12:04:47;;;;;;;7.70;2.40;;;23.70;99.90;;;;;;4985090;28;20399;-62
2022/05/16 12:07:17;;;;;;;6.95;2.20;;;23.60;99.90;;;;;;4985076;28;20429;-61
2022/05/16 12:09:59;;;;;;;8.18;2.33;;;23.50;99.90;;;;;;4983841;28;20517;-62
2022/05/16 12:12:42;;;;;;;7.35;2.10;;;23.30;99.90;;;;;;4983440;28;21114;-57
2022/05/16 12:15:17;;;;;;;10.35;2.50;;;23.10;99.90;;;;;;4987897;28;20907;-61
2022/05/16 12:18:01;;;;;;;6.68;2.00;;;23.10;99.90;;;;;;4985670;28;20495;-60
2022/05/16 12:20:42;;;;;;;7.88;2.20;;;23.10;99.90;;;;;;4985595;28;20436;-60
2022/05/16 12:23:09;;;;;;;9.20;2.40;;;23.00;99.90;;;;;;4987954;28;20987;-61
2022/05/16 12:25:37;;;;;;;6.80;2.08;;;22.80;99.90;;;;;;4988485;28;20403;-60
2022/05/16 12:28:12;;;;;;;7.20;2.15;;;22.60;99.90;;;;;;4983789;28;20515;-61
2022/05/16 12:30:38;;;;;;;7.18;2.00;;;22.40;99.90;;;;;;4982176;28;20414;-60
2022/05/16 12:33:41;;;;;;;12.50;2.50;;;22.10;99.90;;;;;;4988534;28;20418;-60
2022/05/16 12:36:34;;;;;;;8.65;2.30;;;21.70;99.90;;;;;;4981760;28;20429;-62
2022/05/16 12:39:08;;;;;;;9.43;2.40;;;21.10;99.90;;;;;;4983590;28;20418;-60
2022/05/16 12:41:40;;;;;;;9.53;2.40;;;20.60;23.80;;;;;;4983270;28;20410;-60
2022/05/16 12:44:24;;;;;;;11.18;2.40;;;20.20;1.00;;;;;;4987899;28;20450;-59
2022/05/16 12:47:11;;;;;;;12.95;3.05;;;20.10;19.10;;;;;;4984678;28;20399;-58
2022/05/16 12:49:57;;;;;;;13.23;2.70;;;19.90;1.00;;;;;;4977541;28;20414;-58
2022/05/16 12:52:43;;;;;;;10.50;3.28;;;19.70;1.00;;;;;;4988587;28;20406;-55
2022/05/16 12:55:26;;;;;;;12.27;2.95;;;19.80;99.90;;;;;;4986566;28;20418;-58
2022/05/16 12:58:07;;;;;;;8.45;2.65;;;20.00;99.90;;;;;;4986535;28;20391;-58
2022/05/16 13:00:48;;;;;;;8.73;2.65;;;19.90;99.90;;;;;;4984288;28;20404;-59
2022/05/16 13:03:32;;;;;;;9.48;3.40;;;19.80;27.50;;;;;;4991317;28;20403;-57
2022/05/16 13:06:03;;;;;;;9.18;2.85;;;19.90;99.90;;;;;;4992399;28;20840;-58
2022/05/16 13:09:02;;;;;;;9.23;3.40;;;19.90;99.90;;;;;;4990494;28;20425;-58
2022/05/16 13:11:58;;;;;;;9.40;2.70;;;20.00;1.00;;;;;;4983301;28;20383;-59
2022/05/16 13:14:58;;;;;;;7.10;2.70;;;20.10;99.90;;;;;;4980297;28;20447;-55
2022/05/16 13:17:52;;;;;;;10.73;3.00;;;20.20;1.00;;;;;;4982612;28;20402;-56
2022/05/16 13:20:24;;;;;;;12.82;3.03;;;20.50;99.90;;;;;;4986788;28;20421;-59
2022/05/16 13:22:50;;;;;;;8.77;3.47;;;20.50;99.90;;;;;;4989280;28;20406;-59
2022/05/16 13:25:19;;;;;;;8.00;3.20;;;20.50;99.90;;;;;;4989773;28;20494;-59
2022/05/16 13:30:42;;;;;;;8.70;3.20;;;20.90;99.90;;;;;;4990612;28;20620;-59
2022/05/16 13:33:26;;;;;;;8.65;3.17;;;20.80;7.10;;;;;;4992299;28;20425;-59
2022/05/16 13:35:52;;;;;;;7.85;3.47;;;20.90;1.00;;;;;;4990200;28;20407;-59
2022/05/16 13:38:18;;;;;;;10.93;3.20;;;21.00;99.90;;;;;;4974673;28;20819;-59
2022/05/16 13:40:46;;;;;;;8.40;3.37;;;21.20;1.00;;;;;;4991028;28;20407;-61
2022/05/16 13:43:23;;;;;;;9.95;2.90;;;21.30;99.90;;;;;;4988389;28;20791;-60